createdAt,value
2023-05-14T00:01:42.400Z,102131.16
2023-05-14T00:06:43.795Z,102124.53
2023-05-14T00:11:45.205Z,102126.59
2023-05-14T00:16:46.655Z,102120.19
2023-05-14T00:21:48.355Z,102121.88
2023-05-14T00:26:49.776Z,102114.41
2023-05-14T00:31:51.439Z,102113.34
2023-05-14T00:36:52.939Z,102110.47
2023-05-14T00:41:54.396Z,102110.56
2023-05-14T00:46:55.975Z,102109.44
2023-05-14T00:51:57.561Z,102103.47
2023-05-14T00:56:59.974Z,102104.84
2023-05-14T01:02:01.714Z,102099.81
2023-05-14T01:07:16.742Z,102102.84
2023-05-14T01:12:52.024Z,102100.63
2023-05-14T01:18:04.194Z,102102.28
2023-05-14T01:23:05.766Z,102104.88
2023-05-14T01:28:18.997Z,102098.41
2023-05-14T01:33:22.335Z,102088.38
2023-05-14T01:38:24.629Z,102090.97
2023-05-14T01:43:26.208Z,102082.72
2023-05-14T01:48:28.103Z,102088.66
2023-05-14T01:53:29.618Z,102098.06
2023-05-14T01:58:31.048Z,102104.88
2023-05-14T02:03:32.536Z,102091.88
2023-05-14T02:08:34.065Z,102096.81
2023-05-14T02:13:36.297Z,102090.66
2023-05-14T02:18:37.771Z,102095.81
2023-05-14T02:23:42.069Z,102090.88
2023-05-14T02:28:44.056Z,102088.97
2023-05-14T02:33:47.677Z,102086.28
2023-05-14T02:38:49.327Z,102083.06
2023-05-14T02:43:50.875Z,102072.78
2023-05-14T02:48:52.417Z,102065.03
2023-05-14T02:53:54.392Z,102070.09
2023-05-14T02:58:55.886Z,102068.72
2023-05-14T03:03:57.885Z,102067.56
2023-05-14T03:08:59.320Z,102066.78
2023-05-14T03:14:00.814Z,102065.34
2023-05-14T03:19:02.277Z,102062.94
2023-05-14T03:24:04.455Z,102063.00
2023-05-14T03:29:05.858Z,102072.16
2023-05-14T03:34:07.297Z,102067.81
2023-05-14T03:39:08.760Z,102072.56
2023-05-14T03:44:10.342Z,102063.75
2023-05-14T03:49:11.873Z,102062.94
2023-05-14T03:54:13.518Z,102058.97
2023-05-14T03:59:14.944Z,102059.19
2023-05-14T04:04:16.403Z,102060.28
2023-05-14T04:09:17.864Z,102057.09
2023-05-14T04:14:19.286Z,102060.00
2023-05-14T04:19:20.793Z,102055.38
2023-05-14T04:24:22.231Z,102062.94
2023-05-14T04:29:23.670Z,102067.09
2023-05-14T04:34:25.146Z,102066.00
2023-05-14T04:39:26.613Z,102068.75
2023-05-14T04:44:28.079Z,102068.75
2023-05-14T04:49:30.949Z,102065.25
2023-05-14T04:54:32.556Z,102069.44
2023-05-14T04:59:34.032Z,102069.38
2023-05-14T05:04:35.463Z,102066.66
2023-05-14T05:09:36.891Z,102066.63
2023-05-14T05:14:38.341Z,102063.34
2023-05-14T05:19:43.837Z,102058.88
2023-05-14T05:24:46.471Z,102063.34
2023-05-14T05:29:48.521Z,102068.28
2023-05-14T05:34:50.023Z,102066.94
2023-05-14T05:39:51.443Z,102065.88
2023-05-14T05:44:52.904Z,102067.81
2023-05-14T05:49:54.298Z,102072.41
2023-05-14T05:54:55.717Z,102061.78
2023-05-14T05:59:57.154Z,102061.50
2023-05-14T06:04:58.594Z,102065.91
2023-05-14T06:10:00.178Z,102064.47
2023-05-14T06:15:01.655Z,102063.38
2023-05-14T06:20:03.304Z,102064.00
2023-05-14T06:25:05.145Z,102058.41
2023-05-14T06:30:07.072Z,102058.47
2023-05-14T06:35:09.119Z,102055.09
2023-05-14T06:40:11.245Z,102059.53
2023-05-14T06:45:12.664Z,102062.63
2023-05-14T06:50:14.098Z,102064.34
2023-05-14T06:55:15.549Z,102053.66
2023-05-14T07:00:17.501Z,102048.78
2023-05-14T07:05:18.963Z,102052.16
2023-05-14T07:10:20.419Z,102048.56
2023-05-14T07:15:21.899Z,102054.34
2023-05-14T07:20:23.762Z,102050.09
2023-05-14T07:25:25.447Z,102040.38
2023-05-14T07:30:26.987Z,102041.72
2023-05-14T07:35:28.544Z,102044.81
2023-05-14T07:40:30.002Z,102034.69
2023-05-14T07:45:31.541Z,102030.09
2023-05-14T07:50:32.988Z,102038.44
2023-05-14T07:55:34.381Z,102033.81
2023-05-14T08:00:35.812Z,102021.38
2023-05-14T08:05:37.268Z,102021.84
2023-05-14T08:10:38.739Z,102017.00
2023-05-14T08:15:40.252Z,102013.63
2023-05-14T08:20:41.687Z,102012.81
2023-05-14T08:25:43.136Z,102010.91
2023-05-14T08:35:54.682Z,102008.06
2023-05-14T08:40:57.628Z,102007.56
2023-05-14T08:46:01.373Z,102002.50
2023-05-14T08:51:03.282Z,101999.34
2023-05-14T08:56:06.670Z,101989.94
2023-05-14T09:01:08.145Z,101989.56
2023-05-14T09:06:11.085Z,101990.19
2023-05-14T09:11:12.533Z,101992.75
2023-05-14T09:16:15.020Z,101981.75
2023-05-14T09:21:17.911Z,101985.78
2023-05-14T09:26:23.651Z,101977.16
2023-05-14T09:31:25.081Z,101974.81
2023-05-14T09:36:27.125Z,101968.28
2023-05-14T09:41:28.602Z,101958.56
2023-05-14T09:46:30.107Z,101957.19
2023-05-14T09:57:08.987Z,101951.75
2023-05-14T10:02:34.819Z,101941.91
2023-05-14T10:07:44.171Z,101942.63
2023-05-14T10:12:52.670Z,101933.47
2023-05-14T10:18:00.357Z,101933.75
2023-05-14T10:23:02.140Z,101927.81
2023-05-14T10:28:05.241Z,101927.53
2023-05-14T10:33:13.125Z,101913.44
2023-05-14T10:38:14.975Z,101910.44
2023-05-14T10:43:17.539Z,101898.31
2023-05-14T10:48:19.646Z,101891.31
2023-05-14T10:53:34.464Z,101894.50
2023-05-14T10:58:42.784Z,101893.19
2023-05-14T11:03:46.640Z,101887.22
2023-05-14T11:08:51.060Z,101883.50
2023-05-14T11:13:53.902Z,101871.44
2023-05-14T11:19:02.927Z,101866.44
2023-05-14T11:24:04.822Z,101852.66
2023-05-14T11:29:06.310Z,101847.75
2023-05-14T11:34:07.910Z,101852.22
2023-05-14T11:39:09.367Z,101843.72
2023-05-14T11:44:10.965Z,101838.66
2023-05-14T11:49:12.483Z,101835.50
2023-05-14T11:54:14.278Z,101829.06
2023-05-14T11:59:17.284Z,101816.72
2023-05-14T12:04:19.699Z,101829.97
2023-05-14T12:09:22.320Z,101818.97
2023-05-14T12:14:24.371Z,101801.47
2023-05-14T12:19:25.819Z,101804.00
2023-05-14T12:24:29.107Z,101807.03
2023-05-14T12:29:39.230Z,101796.78
2023-05-14T12:34:40.729Z,101788.97
2023-05-14T12:44:52.882Z,101783.53
2023-05-14T12:49:54.353Z,101784.16
2023-05-14T13:00:20.558Z,101769.75
2023-05-14T13:10:45.766Z,101754.16
2023-05-14T13:31:23.022Z,101735.09
2023-05-14T13:47:26.928Z,101733.31
2023-05-14T14:02:53.925Z,101707.50
2023-05-14T14:08:01.066Z,101697.66
2023-05-14T14:18:50.668Z,101691.44
2023-05-14T14:29:15.336Z,101679.78
2023-05-14T14:34:16.808Z,101668.81
2023-05-14T14:39:18.227Z,101661.03
2023-05-14T14:49:50.305Z,101666.38
2023-05-14T15:00:03.306Z,101664.84
2023-05-14T15:21:24.035Z,101655.28
2023-05-14T15:26:25.453Z,101652.63
2023-05-14T15:31:26.939Z,101642.94
2023-05-14T15:36:28.366Z,101638.22
2023-05-14T15:41:29.908Z,101632.25
2023-05-14T15:46:31.411Z,101623.94
2023-05-14T15:51:32.892Z,101632.31
2023-05-14T15:56:34.389Z,101624.69
2023-05-14T16:01:35.883Z,101617.28
2023-05-14T16:06:37.346Z,101616.03
2023-05-14T16:11:38.841Z,101607.19
2023-05-14T16:16:40.274Z,101608.31
2023-05-14T16:21:43.238Z,101609.28
2023-05-14T16:37:48.559Z,101612.09
2023-05-14T16:48:16.985Z,101605.56
2023-05-14T16:53:19.581Z,101604.16
2023-05-14T17:03:32.941Z,101609.09
2023-05-14T17:08:34.410Z,101601.78
2023-05-14T17:13:35.875Z,101597.84
2023-05-14T17:18:37.394Z,101592.81
2023-05-14T17:23:38.861Z,101597.50
2023-05-14T17:28:40.262Z,101594.47
2023-05-14T17:33:41.808Z,101580.47
2023-05-14T17:38:43.319Z,101587.56
2023-05-14T17:43:44.755Z,101596.06
2023-05-14T17:48:51.309Z,101592.75
2023-05-14T17:53:52.961Z,101597.34
2023-05-14T17:58:54.403Z,101596.94
2023-05-14T18:03:55.890Z,101602.41
2023-05-14T18:08:57.547Z,101596.97
2023-05-14T18:14:02.649Z,101603.84
2023-05-14T18:19:04.691Z,101604.56
2023-05-14T18:24:06.620Z,101616.59
2023-05-14T18:29:08.451Z,101612.72
2023-05-14T18:34:09.875Z,101613.06
2023-05-14T18:39:11.318Z,101628.59
2023-05-14T18:44:13.149Z,101625.66
2023-05-14T18:49:14.626Z,101625.16
2023-05-14T18:54:16.029Z,101631.63
2023-05-14T18:59:17.524Z,101627.72
2023-05-14T19:04:18.934Z,101627.00
2023-05-14T19:14:25.276Z,101632.09
2023-05-14T19:19:26.813Z,101632.84
2023-05-14T19:24:28.298Z,101626.03
2023-05-14T19:29:29.762Z,101628.78
2023-05-14T19:34:31.246Z,101632.53
2023-05-14T19:39:32.725Z,101636.78
2023-05-14T19:44:34.231Z,101625.50
2023-05-14T19:49:35.710Z,101628.09
2023-05-14T19:54:37.154Z,101628.47
2023-05-14T19:59:38.625Z,101627.88
2023-05-14T20:04:40.130Z,101640.56
2023-05-14T20:09:42.021Z,101629.06
2023-05-14T20:14:43.530Z,101638.03
2023-05-14T20:19:45.017Z,101627.63
2023-05-14T20:24:46.446Z,101627.88
2023-05-14T20:29:47.872Z,101622.75
2023-05-14T20:34:49.274Z,101618.22
2023-05-14T20:39:50.756Z,101611.81
2023-05-14T20:44:53.084Z,101611.47
2023-05-14T20:50:01.708Z,101609.81
2023-05-14T20:55:03.357Z,101606.88
2023-05-14T21:00:05.456Z,101597.22
2023-05-14T21:05:07.062Z,101593.22
2023-05-14T21:10:09.361Z,101590.53
2023-05-14T21:15:11.062Z,101577.03
2023-05-14T21:25:24.951Z,101579.94
2023-05-14T21:30:33.344Z,101574.53
2023-05-14T21:35:34.807Z,101568.59
2023-05-14T21:40:36.520Z,101570.69
2023-05-14T21:56:18.090Z,101561.13
2023-05-14T22:01:19.581Z,101556.00
2023-05-14T22:06:21.475Z,101553.09
2023-05-14T22:11:23.008Z,101545.47
2023-05-14T22:16:24.480Z,101545.69
2023-05-14T22:21:26.041Z,101546.78
2023-05-14T22:26:27.521Z,101543.50
2023-05-14T22:31:30.799Z,101538.09
2023-05-14T22:36:32.295Z,101537.22
2023-05-14T22:41:40.450Z,101527.72
2023-05-14T22:46:42.064Z,101525.78
2023-05-14T22:51:43.551Z,101518.53
2023-05-14T22:56:45.015Z,101508.47
2023-05-14T23:01:46.563Z,101506.63
2023-05-14T23:06:48.133Z,101502.53
2023-05-14T23:11:49.680Z,101492.16
2023-05-14T23:16:51.141Z,101495.94
2023-05-14T23:21:52.572Z,101492.66
2023-05-14T23:26:54.027Z,101485.03
2023-05-14T23:31:55.497Z,101481.25
2023-05-14T23:36:57.030Z,101468.63
2023-05-14T23:41:58.475Z,101466.41
2023-05-14T23:46:59.998Z,101460.41
2023-05-14T23:52:01.990Z,101457.25
2023-05-14T23:57:15.272Z,101457.91
